Time;durP1;ratioP1;P1;durP2;ratioP2;P2;SDS_P1;SDS_P2;PMS_P1;PMS_P2;Temp;Humidity;BMP_temperature;BMP_pressure;BME280_temperature;BME280_humidity;BME280_pressure;Samples;Min_cycle;Max_cycle;Signal;HPM_P1;HPM_P2
2022/03/23 00:00:46;;;;;;;33.13;17.10;;;8.10;21.90;;;;;;4910629;28;20429;-75
2022/03/23 00:03:13;;;;;;;32.60;16.95;;;8.10;23.00;;;;;;4922492;28;20750;-75
2022/03/23 00:05:41;;;;;;;27.50;16.55;;;7.90;20.60;;;;;;4909780;29;20800;-76
2022/03/23 00:08:06;;;;;;;29.75;16.17;;;8.00;22.40;;;;;;4907353;29;20405;-76
2022/03/23 00:10:32;;;;;;;26.27;16.52;;;8.00;20.80;;;;;;4904963;28;20831;-76
2022/03/23 00:12:58;;;;;;;29.05;16.58;;;8.00;22.30;;;;;;4940398;28;20438;-77
2022/03/23 00:15:24;;;;;;;33.88;17.80;;;8.00;21.10;;;;;;4911316;29;20420;-76
2022/03/23 00:17:50;;;;;;;33.83;17.67;;;7.90;20.90;;;;;;4931702;28;20409;-75
2022/03/23 00:20:16;;;;;;;30.23;16.40;;;7.90;21.90;;;;;;4913222;29;20408;-76
2022/03/23 00:22:41;;;;;;;27.00;16.03;;;7.90;21.90;;;;;;4913794;28;20492;-76
2022/03/23 00:25:08;;;;;;;31.60;17.40;;;7.90;22.10;;;;;;4913388;28;20905;-76
2022/03/23 00:27:35;;;;;;;31.88;17.20;;;7.80;22.80;;;;;;4913931;28;20525;-76
2022/03/23 00:30:01;;;;;;;34.33;17.40;;;7.60;23.30;;;;;;4909970;28;20409;-75
2022/03/23 00:32:26;;;;;;;31.00;17.77;;;7.50;24.90;;;;;;4904143;28;20419;-76
2022/03/23 00:34:52;;;;;;;28.88;16.40;;;7.40;25.40;;;;;;4939700;28;20409;-77
2022/03/23 00:37:18;;;;;;;28.67;17.00;;;7.30;26.00;;;;;;4922149;28;20530;-76
2022/03/23 00:39:43;;;;;;;31.20;17.20;;;7.20;27.30;;;;;;4914520;29;20413;-76
2022/03/23 00:42:09;;;;;;;33.60;19.50;;;7.10;27.50;;;;;;4898633;28;20831;-76
2022/03/23 00:44:35;;;;;;;30.40;18.03;;;6.90;27.40;;;;;;4921054;28;20467;-76
2022/03/23 00:47:01;;;;;;;29.15;17.05;;;6.80;27.40;;;;;;4903700;28;20424;-76
2022/03/23 00:49:26;;;;;;;31.67;18.50;;;6.80;27.60;;;;;;4915085;28;20422;-76
2022/03/23 00:51:53;;;;;;;30.77;18.50;;;7.00;29.00;;;;;;4912405;28;20775;-75
2022/03/23 00:54:22;;;;;;;32.63;18.02;;;7.30;28.70;;;;;;4917783;29;20774;-76
2022/03/23 00:56:50;;;;;;;34.50;19.50;;;7.30;28.70;;;;;;4911113;28;20494;-76
2022/03/23 00:59:16;;;;;;;32.50;17.42;;;7.10;28.10;;;;;;4918238;28;20447;-75
2022/03/23 01:01:42;;;;;;;32.60;18.10;;;7.00;28.10;;;;;;4928662;28;20436;-77
2022/03/23 01:04:08;;;;;;;33.85;17.95;;;7.20;30.30;;;;;;4910699;29;20420;-76
2022/03/23 01:06:33;;;;;;;33.25;18.73;;;7.10;30.20;;;;;;4916882;28;20887;-75
2022/03/23 01:08:59;;;;;;;32.57;18.27;;;7.10;29.40;;;;;;4925162;28;20964;-75
2022/03/23 01:11:24;;;;;;;33.03;18.17;;;7.30;28.30;;;;;;4903790;28;20485;-75
2022/03/23 01:13:50;;;;;;;29.48;17.80;;;7.20;27.60;;;;;;4907625;28;20410;-77
2022/03/23 01:16:17;;;;;;;34.20;18.08;;;7.10;27.60;;;;;;4931194;28;20398;-76
2022/03/23 01:18:43;;;;;;;31.42;18.63;;;7.10;28.60;;;;;;4910765;28;20931;-76
2022/03/23 01:21:08;;;;;;;32.13;18.67;;;7.00;27.60;;;;;;4920678;28;20414;-73
2022/03/23 01:23:34;;;;;;;29.33;17.73;;;6.90;27.80;;;;;;4907684;28;20425;-73
2022/03/23 01:25:59;;;;;;;34.92;18.30;;;6.90;30.30;;;;;;4928113;28;20421;-72
2022/03/23 01:28:25;;;;;;;29.73;18.30;;;6.90;30.60;;;;;;4930444;28;20879;-73
2022/03/23 01:30:51;;;;;;;34.30;17.98;;;7.00;29.00;;;;;;4912447;28;20945;-74
2022/03/23 01:33:17;;;;;;;34.72;18.80;;;7.00;30.10;;;;;;4912026;28;20421;-73
2022/03/23 01:35:42;;;;;;;34.53;18.40;;;6.90;30.80;;;;;;4903239;28;20436;-74
2022/03/23 01:38:08;;;;;;;32.30;19.10;;;6.70;30.20;;;;;;4909077;28;20454;-73
2022/03/23 01:40:34;;;;;;;30.35;18.27;;;6.60;31.20;;;;;;4929882;28;20408;-75
2022/03/23 01:42:59;;;;;;;32.47;18.80;;;6.40;30.60;;;;;;4900518;28;20414;-74
2022/03/23 01:45:25;;;;;;;33.07;19.70;;;6.40;31.70;;;;;;4931130;28;20419;-74
2022/03/23 01:47:51;;;;;;;31.30;18.83;;;6.30;32.40;;;;;;4914060;28;20766;-73
2022/03/23 01:50:16;;;;;;;33.13;18.45;;;6.30;33.20;;;;;;4914750;28;20420;-74
2022/03/23 01:52:42;;;;;;;33.10;18.50;;;6.40;32.20;;;;;;4912560;28;20457;-74
2022/03/23 01:55:13;;;;;;;36.38;19.60;;;6.40;32.90;;;;;;4925163;28;20492;-74
2022/03/23 01:57:41;;;;;;;35.85;18.45;;;6.50;32.70;;;;;;4914044;28;20467;-73
2022/03/23 02:00:07;;;;;;;33.50;19.17;;;6.50;33.20;;;;;;4914828;28;20397;-73
2022/03/23 02:02:33;;;;;;;32.25;19.83;;;6.40;32.30;;;;;;4914065;28;20421;-74
2022/03/23 02:04:59;;;;;;;34.33;18.70;;;6.40;32.70;;;;;;4924593;28;20411;-74
2022/03/23 02:07:24;;;;;;;34.15;19.17;;;6.50;34.00;;;;;;4928320;28;20973;-74
2022/03/23 02:09:50;;;;;;;33.35;19.60;;;6.50;31.30;;;;;;4927707;28;20405;-75
2022/03/23 02:12:16;;;;;;;32.30;18.90;;;6.40;30.90;;;;;;4913780;28;20894;-74
2022/03/23 02:14:42;;;;;;;32.60;18.23;;;6.60;30.80;;;;;;4913693;28;20508;-74
2022/03/23 02:17:08;;;;;;;31.63;17.53;;;6.50;29.90;;;;;;4932051;28;20505;-74
2022/03/23 02:19:34;;;;;;;37.08;18.85;;;6.40;30.30;;;;;;4913049;28;20409;-74
2022/03/23 02:22:01;;;;;;;29.27;18.40;;;6.40;32.70;;;;;;4908699;28;20497;-73
2022/03/23 02:24:28;;;;;;;30.95;17.75;;;6.40;32.80;;;;;;4930004;28;20811;-73
2022/03/23 02:26:55;;;;;;;33.70;18.73;;;6.40;31.70;;;;;;4914200;28;20919;-73
2022/03/23 02:29:22;;;;;;;30.48;18.52;;;6.70;32.00;;;;;;4913187;28;20408;-73
2022/03/23 02:31:48;;;;;;;30.80;19.80;;;6.70;30.30;;;;;;4905775;28;20430;-73
2022/03/23 02:34:13;;;;;;;32.80;18.70;;;6.70;30.00;;;;;;4929695;28;20421;-73
2022/03/23 02:36:39;;;;;;;37.50;19.73;;;6.70;28.10;;;;;;4929363;28;20405;-73
2022/03/23 02:39:05;;;;;;;31.50;17.67;;;6.80;27.80;;;;;;4913823;28;20448;-73
2022/03/23 02:41:31;;;;;;;31.97;18.23;;;6.90;26.50;;;;;;4932291;28;20419;-73
2022/03/23 02:43:59;;;;;;;33.45;18.83;;;7.00;26.00;;;;;;4925825;28;20814;-73
2022/03/23 02:46:25;;;;;;;34.10;18.58;;;7.00;26.20;;;;;;4926592;28;20439;-73
2022/03/23 02:48:54;;;;;;;31.50;18.50;;;7.00;26.30;;;;;;4914257;29;20480;-73
2022/03/23 02:51:19;;;;;;;35.20;19.17;;;6.90;27.00;;;;;;4922544;28;20402;-73
2022/03/23 03:02:46;;;;;;;28.88;16.52;;;7.00;26.50;;;;;;4908140;29;20424;-73
2022/03/23 03:05:12;;;;;;;30.03;17.60;;;7.00;25.20;;;;;;4912553;28;20405;-75
2022/03/23 03:10:24;;;;;;;33.65;17.60;;;7.00;25.00;;;;;;4927541;28;20423;-73
2022/03/23 03:12:51;;;;;;;31.35;17.17;;;6.90;25.20;;;;;;4906655;28;20399;-73
2022/03/23 03:15:19;;;;;;;29.97;17.47;;;7.00;24.40;;;;;;4912760;28;20751;-73
2022/03/23 03:17:46;;;;;;;29.87;17.10;;;7.00;24.30;;;;;;4913406;28;20480;-77
2022/03/23 03:20:14;;;;;;;31.75;17.83;;;7.00;24.40;;;;;;4926527;28;20464;-76
2022/03/23 03:22:40;;;;;;;28.67;17.92;;;7.00;23.80;;;;;;4929717;28;20414;-76
2022/03/23 03:25:06;;;;;;;29.63;17.75;;;7.10;23.70;;;;;;4892726;29;20459;-76
2022/03/23 03:27:35;;;;;;;34.47;17.27;;;7.00;23.60;;;;;;4923538;28;20509;-76
2022/03/23 03:30:04;;;;;;;29.25;16.70;;;7.00;23.80;;;;;;4920904;29;20390;-76
2022/03/23 03:32:30;;;;;;;31.45;18.30;;;7.00;23.40;;;;;;4912337;29;20505;-76
2022/03/23 03:34:56;;;;;;;31.33;17.65;;;7.00;22.90;;;;;;4922552;28;20448;-76
2022/03/23 03:37:22;;;;;;;29.90;17.02;;;7.00;23.30;;;;;;4924265;28;20430;-75
2022/03/23 03:39:47;;;;;;;29.47;17.00;;;7.10;23.20;;;;;;4907781;28;20922;-75
2022/03/23 03:42:13;;;;;;;28.53;17.40;;;7.10;24.10;;;;;;4907674;28;20433;-75
2022/03/23 03:44:39;;;;;;;30.93;17.33;;;6.90;23.90;;;;;;4911862;28;20409;-75
2022/03/23 03:47:05;;;;;;;28.27;16.88;;;6.80;24.20;;;;;;4911995;28;20768;-77
2022/03/23 03:49:31;;;;;;;31.17;16.30;;;6.80;23.60;;;;;;4911714;28;20409;-75
2022/03/23 03:51:57;;;;;;;29.17;17.27;;;7.10;23.00;;;;;;4912509;28;20397;-75
2022/03/23 03:54:23;;;;;;;30.15;18.48;;;7.10;22.90;;;;;;4910295;28;20467;-75
2022/03/23 03:56:49;;;;;;;32.80;17.20;;;7.00;23.30;;;;;;4899344;28;20432;-75
2022/03/23 03:59:14;;;;;;;29.48;16.60;;;6.90;23.50;;;;;;4936555;28;20502;-75
2022/03/23 04:01:40;;;;;;;32.30;19.05;;;6.90;24.50;;;;;;4911044;28;20492;-77
2022/03/23 04:04:05;;;;;;;30.20;17.90;;;6.80;24.80;;;;;;4913568;28;20844;-77
2022/03/23 04:06:31;;;;;;;33.42;18.02;;;6.70;25.80;;;;;;4929898;28;20468;-77
2022/03/23 04:08:56;;;;;;;33.72;19.45;;;6.60;25.90;;;;;;4908847;28;20398;-75
2022/03/23 04:11:22;;;;;;;34.53;18.48;;;6.50;26.40;;;;;;4911127;28;20933;-73
2022/03/23 04:13:48;;;;;;;34.13;18.33;;;6.50;26.90;;;;;;4912190;28;20409;-73
2022/03/23 04:16:13;;;;;;;30.30;17.95;;;6.40;28.10;;;;;;4943449;28;20512;-72
2022/03/23 04:18:39;;;;;;;32.13;17.40;;;6.40;27.20;;;;;;4902204;28;20416;-72
2022/03/23 04:21:05;;;;;;;35.58;18.58;;;6.50;27.30;;;;;;4925331;28;20433;-73
2022/03/23 04:23:30;;;;;;;32.78;17.85;;;6.40;26.70;;;;;;4927627;28;20749;-73
2022/03/23 04:25:56;;;;;;;33.37;19.57;;;6.40;27.10;;;;;;4911450;28;20927;-72
2022/03/23 04:28:22;;;;;;;33.10;19.37;;;6.40;27.20;;;;;;4911146;28;20428;-72
2022/03/23 04:30:48;;;;;;;30.57;17.73;;;6.40;27.40;;;;;;4911800;28;20406;-73
2022/03/23 04:33:13;;;;;;;31.73;17.75;;;6.40;27.20;;;;;;4912872;29;20472;-73
2022/03/23 04:35:39;;;;;;;29.90;18.48;;;6.30;27.40;;;;;;4907837;28;20417;-72
2022/03/23 04:38:05;;;;;;;31.67;18.10;;;6.40;28.40;;;;;;4907867;28;20398;-72
2022/03/23 04:40:31;;;;;;;38.60;19.20;;;6.30;28.90;;;;;;4895079;28;20493;-73
2022/03/23 04:42:58;;;;;;;32.97;18.37;;;6.20;28.90;;;;;;4914602;28;20412;-73
2022/03/23 04:45:24;;;;;;;37.90;18.50;;;6.20;29.00;;;;;;4925224;28;20480;-71
2022/03/23 04:47:50;;;;;;;32.75;18.60;;;6.20;28.90;;;;;;4892180;29;20421;-73
2022/03/23 04:50:16;;;;;;;33.40;17.63;;;6.20;28.40;;;;;;4894128;28;20406;-73
2022/03/23 04:52:44;;;;;;;29.65;17.85;;;6.20;28.30;;;;;;4912939;28;20405;-73
2022/03/23 04:55:12;;;;;;;28.52;18.33;;;6.30;27.00;;;;;;4932467;28;20407;-73
2022/03/23 04:57:38;;;;;;;35.60;18.30;;;6.30;27.70;;;;;;4906723;28;20418;-73
2022/03/23 05:00:06;;;;;;;28.70;17.33;;;6.40;27.10;;;;;;4925287;28;20498;-73
2022/03/23 05:02:32;;;;;;;28.67;17.92;;;6.40;26.90;;;;;;4928720;28;20467;-73
2022/03/23 05:04:57;;;;;;;31.42;18.00;;;6.40;26.90;;;;;;4910575;28;20895;-71
2022/03/23 05:07:23;;;;;;;27.83;17.60;;;6.40;26.60;;;;;;4924811;28;20463;-72
2022/03/23 05:09:48;;;;;;;28.83;17.23;;;6.30;27.10;;;;;;4929572;28;20754;-71
2022/03/23 05:12:14;;;;;;;30.93;17.43;;;6.20;27.30;;;;;;4912306;28;20541;-73
2022/03/23 05:14:40;;;;;;;33.50;18.13;;;6.20;28.00;;;;;;4910146;28;20428;-73
2022/03/23 05:17:06;;;;;;;29.65;17.75;;;6.20;28.10;;;;;;4915223;28;20467;-72
2022/03/23 05:19:31;;;;;;;36.20;18.05;;;6.20;28.20;;;;;;4914900;28;20409;-72
2022/03/23 05:21:57;;;;;;;29.75;18.40;;;6.20;28.10;;;;;;4898938;28;20401;-71
2022/03/23 05:24:23;;;;;;;31.27;18.98;;;6.10;28.90;;;;;;4914332;28;20935;-72
2022/03/23 05:26:48;;;;;;;33.17;19.27;;;6.00;28.70;;;;;;4914276;28;20421;-72
2022/03/23 05:29:14;;;;;;;28.90;18.57;;;5.90;29.20;;;;;;4910047;28;20415;-74
2022/03/23 05:31:40;;;;;;;32.83;18.63;;;5.80;30.00;;;;;;4930134;28;20810;-73
2022/03/23 05:34:06;;;;;;;31.38;19.00;;;5.70;30.60;;;;;;4919550;28;20394;-72
2022/03/23 05:36:32;;;;;;;30.95;18.80;;;5.70;30.80;;;;;;4913420;28;20432;-73
2022/03/23 05:38:57;;;;;;;32.97;18.73;;;5.70;31.30;;;;;;4914884;28;20491;-73
2022/03/23 05:41:24;;;;;;;32.65;19.45;;;5.60;31.20;;;;;;4915001;28;20413;-73
2022/03/23 05:43:49;;;;;;;31.35;18.02;;;5.70;31.70;;;;;;4920459;28;20911;-72
2022/03/23 05:46:15;;;;;;;31.90;18.90;;;5.70;32.40;;;;;;4940093;28;20510;-73
2022/03/23 05:48:40;;;;;;;34.50;19.20;;;5.80;32.40;;;;;;4913120;28;20822;-73
2022/03/23 05:51:06;;;;;;;37.63;20.40;;;5.80;31.30;;;;;;4929575;28;20413;-73
2022/03/23 05:53:33;;;;;;;32.72;19.25;;;5.80;30.80;;;;;;4933105;28;20425;-78
2022/03/23 05:55:58;;;;;;;32.03;19.17;;;5.80;31.20;;;;;;4930432;28;21057;-72
2022/03/23 05:58:24;;;;;;;34.53;19.25;;;5.90;30.80;;;;;;4908278;29;20427;-76
2022/03/23 06:00:50;;;;;;;34.23;19.33;;;5.90;31.00;;;;;;4915202;28;20475;-76
2022/03/23 06:03:15;;;;;;;34.13;20.70;;;5.90;31.20;;;;;;4916147;28;20406;-76
2022/03/23 06:05:41;;;;;;;38.40;19.93;;;5.90;31.20;;;;;;4907895;28;20421;-76
2022/03/23 06:08:07;;;;;;;40.83;19.60;;;5.90;31.00;;;;;;4909253;28;20442;-75
2022/03/23 06:10:33;;;;;;;30.25;18.95;;;6.00;30.70;;;;;;4916845;29;20448;-75
2022/03/23 06:12:59;;;;;;;30.20;19.30;;;6.00;30.80;;;;;;4916238;28;20409;-76
2022/03/23 06:15:24;;;;;;;34.53;20.85;;;6.00;31.00;;;;;;4933028;28;20410;-76
2022/03/23 06:17:50;;;;;;;35.72;18.80;;;6.10;30.50;;;;;;4908304;28;20907;-75
2022/03/23 06:20:16;;;;;;;39.95;20.80;;;6.20;30.20;;;;;;4911458;28;20941;-75
2022/03/23 06:22:41;;;;;;;35.00;18.95;;;6.20;30.30;;;;;;4904030;28;20990;-76
2022/03/23 06:25:08;;;;;;;29.60;18.80;;;6.40;32.10;;;;;;4914673;29;20405;-75
2022/03/23 06:27:34;;;;;;;36.30;18.92;;;6.40;30.60;;;;;;4934314;28;20421;-76
2022/03/23 06:30:01;;;;;;;37.78;19.92;;;6.40;30.50;;;;;;4909459;28;20417;-75
2022/03/23 06:32:26;;;;;;;37.75;20.55;;;6.60;30.10;;;;;;4914618;28;20408;-76
2022/03/23 06:34:52;;;;;;;32.67;19.38;;;6.60;29.50;;;;;;4921813;28;20409;-76
2022/03/23 06:37:17;;;;;;;32.50;19.55;;;6.70;28.50;;;;;;4926735;28;20445;-76
2022/03/23 06:39:43;;;;;;;32.75;20.27;;;6.80;28.60;;;;;;4912366;28;20425;-76
2022/03/23 06:42:09;;;;;;;37.07;19.57;;;6.90;28.40;;;;;;4911453;29;20411;-76
2022/03/23 06:44:34;;;;;;;35.00;19.50;;;7.00;28.10;;;;;;4909001;28;20444;-75
2022/03/23 06:47:00;;;;;;;38.43;19.43;;;7.10;27.30;;;;;;4912370;29;20423;-76
2022/03/23 06:49:25;;;;;;;35.47;19.50;;;7.10;27.30;;;;;;4911639;29;20429;-74
2022/03/23 06:51:51;;;;;;;34.27;18.70;;;7.30;26.70;;;;;;4901847;28;20411;-75
2022/03/23 06:54:18;;;;;;;38.70;21.00;;;7.20;24.90;;;;;;4900756;29;20466;-75
2022/03/23 06:56:43;;;;;;;37.22;18.80;;;7.20;25.00;;;;;;4946616;28;20444;-77
2022/03/23 06:59:09;;;;;;;37.07;20.10;;;7.40;25.50;;;;;;4913334;28;20458;-76
2022/03/23 07:01:34;;;;;;;34.60;18.27;;;7.50;25.10;;;;;;4906530;28;20410;-75
2022/03/23 07:04:00;;;;;;;38.93;19.00;;;7.50;24.10;;;;;;4902617;28;20471;-78
2022/03/23 07:06:25;;;;;;;31.33;19.40;;;7.60;23.50;;;;;;4905911;28;20482;-74
2022/03/23 07:11:35;;;;;;;31.55;18.45;;;7.80;22.90;;;;;;4910928;28;20448;-77
2022/03/23 07:14:01;;;;;;;37.25;19.00;;;7.80;22.20;;;;;;4933215;28;20402;-76
2022/03/23 07:16:28;;;;;;;32.03;18.50;;;8.00;22.00;;;;;;4890428;28;20423;-75
2022/03/23 07:18:53;;;;;;;30.98;18.73;;;8.10;21.60;;;;;;4890187;29;20471;-77
2022/03/23 07:21:19;;;;;;;40.70;19.07;;;8.30;21.00;;;;;;4892195;29;20413;-76
2022/03/23 07:23:44;;;;;;;34.40;19.53;;;8.40;20.00;;;;;;4913956;28;20418;-77
2022/03/23 07:26:10;;;;;;;34.30;18.60;;;8.40;20.00;;;;;;4894194;28;20911;-77
2022/03/23 07:28:36;;;;;;;30.73;18.93;;;8.50;20.80;;;;;;4903954;28;20417;-77
2022/03/23 07:31:01;;;;;;;38.88;20.38;;;8.50;20.00;;;;;;4911053;29;20441;-77
2022/03/23 07:33:28;;;;;;;41.92;20.08;;;8.70;20.00;;;;;;4916811;28;20484;-76
2022/03/23 07:35:54;;;;;;;42.28;19.85;;;8.80;19.80;;;;;;4912865;28;20420;-75
2022/03/23 07:38:20;;;;;;;40.63;20.00;;;8.90;19.20;;;;;;4911459;29;20702;-77
2022/03/23 07:40:45;;;;;;;35.33;19.80;;;9.00;19.40;;;;;;4901537;28;20424;-76
2022/03/23 07:43:11;;;;;;;36.00;20.20;;;9.20;19.00;;;;;;4911260;29;20500;-77
2022/03/23 07:45:36;;;;;;;37.65;20.88;;;9.30;19.60;;;;;;4911690;28;20440;-75
2022/03/23 07:48:02;;;;;;;35.13;20.17;;;9.40;18.40;;;;;;4912245;28;20461;-75
2022/03/23 07:50:28;;;;;;;39.17;20.38;;;9.50;18.00;;;;;;4898633;28;20425;-75
2022/03/23 07:52:54;;;;;;;32.30;19.67;;;9.70;17.30;;;;;;4913151;28;20449;-76
2022/03/23 07:55:20;;;;;;;32.67;19.77;;;9.90;16.80;;;;;;4907175;28;20419;-77
2022/03/23 07:57:46;;;;;;;34.30;19.67;;;10.00;16.70;;;;;;4891672;28;20900;-75
2022/03/23 08:00:13;;;;;;;28.25;19.70;;;10.10;16.40;;;;;;4910747;28;20448;-77
2022/03/23 08:02:39;;;;;;;36.70;21.20;;;10.20;15.90;;;;;;4905105;28;20421;-76
2022/03/23 08:05:05;;;;;;;32.15;20.75;;;10.30;16.20;;;;;;4911991;28;20418;-76
2022/03/23 08:07:31;;;;;;;39.65;21.90;;;10.40;15.80;;;;;;4893838;29;20418;-76
2022/03/23 08:09:57;;;;;;;35.38;19.30;;;10.70;15.10;;;;;;4916922;28;20488;-74
2022/03/23 08:12:22;;;;;;;40.03;19.20;;;10.80;14.00;;;;;;4921951;28;20468;-75
2022/03/23 08:14:48;;;;;;;39.50;20.65;;;10.90;14.80;;;;;;4911456;28;20413;-77
2022/03/23 08:17:13;;;;;;;35.17;19.73;;;11.00;14.10;;;;;;4897082;28;20457;-76
2022/03/23 08:19:39;;;;;;;36.65;20.77;;;11.00;13.80;;;;;;4907586;29;20493;-75
2022/03/23 08:22:05;;;;;;;35.83;21.10;;;11.20;13.40;;;;;;4900488;28;20428;-76
2022/03/23 08:24:31;;;;;;;39.88;21.27;;;11.20;13.30;;;;;;4911036;28;20409;-75
2022/03/23 08:26:58;;;;;;;40.07;21.20;;;11.40;13.30;;;;;;4911171;29;20417;-77
2022/03/23 08:29:24;;;;;;;40.53;21.48;;;11.50;12.20;;;;;;4912489;29;20401;-75
2022/03/23 08:31:49;;;;;;;34.70;20.33;;;11.50;12.20;;;;;;4912663;28;20401;-75
2022/03/23 08:34:15;;;;;;;32.27;20.40;;;11.50;11.90;;;;;;4895894;29;20405;-76
2022/03/23 08:36:40;;;;;;;38.03;21.03;;;11.60;11.70;;;;;;4913415;28;20489;-76
2022/03/23 08:39:06;;;;;;;34.00;21.40;;;11.80;12.30;;;;;;4895030;28;20501;-77
2022/03/23 08:41:32;;;;;;;40.60;22.47;;;11.80;12.00;;;;;;4913542;28;20405;-76
2022/03/23 08:43:57;;;;;;;35.57;21.20;;;11.80;12.30;;;;;;4913072;28;20416;-76
2022/03/23 08:46:25;;;;;;;50.13;22.13;;;11.80;12.00;;;;;;4900864;29;20760;-76
2022/03/23 08:48:51;;;;;;;39.40;22.48;;;12.00;12.30;;;;;;4918224;29;20438;-75
2022/03/23 08:51:17;;;;;;;41.45;23.35;;;12.10;11.90;;;;;;4918517;28;20413;-76
2022/03/23 08:53:43;;;;;;;41.22;21.80;;;12.20;11.80;;;;;;4923991;28;20428;-74
2022/03/23 08:56:10;;;;;;;41.35;22.20;;;12.40;12.30;;;;;;4914316;28;20414;-77
2022/03/23 08:58:40;;;;;;;36.88;22.35;;;12.50;12.10;;;;;;4914609;28;20413;-75
2022/03/23 09:01:06;;;;;;;42.38;21.00;;;12.50;12.10;;;;;;4924025;29;20416;-75
2022/03/23 09:03:32;;;;;;;47.60;22.55;;;12.70;12.70;;;;;;4920122;28;20456;-76
2022/03/23 09:05:58;;;;;;;43.35;21.73;;;12.80;11.20;;;;;;4914144;28;20417;-75
2022/03/23 09:08:25;;;;;;;43.65;24.13;;;12.90;11.90;;;;;;4917814;29;20913;-76
2022/03/23 09:10:50;;;;;;;42.45;23.15;;;13.00;11.70;;;;;;4914989;28;20520;-75
2022/03/23 09:13:16;;;;;;;38.70;23.23;;;13.10;11.00;;;;;;4910565;28;20545;-75
2022/03/23 09:15:42;;;;;;;42.05;24.05;;;13.00;10.80;;;;;;4914235;28;20887;-75
2022/03/23 09:18:08;;;;;;;40.75;23.90;;;12.90;10.40;;;;;;4914875;28;20398;-77
2022/03/23 09:20:34;;;;;;;40.67;23.60;;;13.00;10.90;;;;;;4914396;29;20398;-76
2022/03/23 09:23:00;;;;;;;39.40;22.50;;;13.10;10.90;;;;;;4905077;28;20409;-73
2022/03/23 09:25:25;;;;;;;39.23;23.53;;;13.40;10.70;;;;;;4916255;28;20405;-74
2022/03/23 09:27:52;;;;;;;37.80;24.23;;;13.50;10.50;;;;;;4914708;28;20460;-73
2022/03/23 09:30:18;;;;;;;44.97;24.38;;;13.70;11.00;;;;;;4913522;28;20478;-74
2022/03/23 09:32:46;;;;;;;45.03;24.88;;;13.60;9.90;;;;;;4911511;28;20421;-74
2022/03/23 09:35:13;;;;;;;41.00;23.85;;;13.70;10.00;;;;;;4906654;28;20447;-75
2022/03/23 09:37:48;;;;;;;46.92;25.60;;;13.70;10.00;;;;;;4910350;29;20907;-75
2022/03/23 09:40:15;;;;;;;41.93;24.40;;;13.70;9.90;;;;;;4910913;28;20423;-75
2022/03/23 09:42:43;;;;;;;42.55;24.25;;;14.00;9.90;;;;;;4911577;28;20859;-76
2022/03/23 09:45:11;;;;;;;39.35;24.80;;;13.90;8.90;;;;;;4910360;29;20406;-75
2022/03/23 09:47:38;;;;;;;41.53;25.08;;;14.00;9.50;;;;;;4910451;28;20489;-76
2022/03/23 09:50:04;;;;;;;46.78;25.15;;;14.20;9.30;;;;;;4913451;29;20410;-75
2022/03/23 09:52:30;;;;;;;44.55;25.30;;;14.50;9.60;;;;;;4910623;28;20459;-76
2022/03/23 09:54:56;;;;;;;44.35;25.33;;;14.50;8.20;;;;;;4905975;28;20432;-74
2022/03/23 09:57:21;;;;;;;42.83;24.42;;;14.80;8.40;;;;;;4909249;28;20434;-76
2022/03/23 09:59:47;;;;;;;44.57;25.40;;;14.80;8.40;;;;;;4908107;28;20512;-76
2022/03/23 10:02:53;;;;;;;46.47;25.73;;;14.90;8.10;;;;;;4916594;28;20425;-77
2022/03/23 10:05:56;;;;;;;43.92;25.50;;;14.90;7.50;;;;;;4904635;28;20421;-75
2022/03/23 10:08:59;;;;;;;42.22;24.83;;;15.20;7.30;;;;;;4909083;28;20775;-75
2022/03/23 10:12:02;;;;;;;43.13;25.05;;;15.20;8.20;;;;;;4911157;29;20413;-75
2022/03/23 10:14:55;;;;;;;48.88;26.67;;;15.20;8.40;;;;;;4910668;29;20782;-75
2022/03/23 10:17:53;;;;;;;50.75;27.98;;;15.30;7.90;;;;;;4900178;28;20448;-75
2022/03/23 10:20:19;;;;;;;46.90;27.60;;;15.40;7.10;;;;;;4913668;28;20476;-75
2022/03/23 10:22:46;;;;;;;42.60;27.10;;;15.40;6.70;;;;;;4927444;28;20543;-75
2022/03/23 10:25:12;;;;;;;46.15;26.80;;;15.60;6.10;;;;;;4915414;28;20410;-74
2022/03/23 10:27:38;;;;;;;45.00;26.80;;;15.80;6.10;;;;;;4915122;28;20437;-76
2022/03/23 10:30:04;;;;;;;47.93;28.23;;;15.60;6.00;;;;;;4914465;28;20405;-75
2022/03/23 10:32:37;;;;;;;56.55;27.92;;;15.50;5.80;;;;;;4909822;28;20401;-76
2022/03/23 10:35:04;;;;;;;44.90;26.77;;;15.50;6.10;;;;;;4933295;28;20398;-76
2022/03/23 10:37:34;;;;;;;53.13;28.77;;;15.70;5.60;;;;;;4918682;28;20426;-75
2022/03/23 10:40:03;;;;;;;46.45;27.88;;;15.80;5.50;;;;;;4926658;28;20413;-75
2022/03/23 10:42:32;;;;;;;47.88;27.85;;;15.70;5.70;;;;;;4916495;28;20791;-76
2022/03/23 10:45:17;;;;;;;47.47;27.17;;;16.00;5.60;;;;;;4916083;28;20432;-76
2022/03/23 10:47:45;;;;;;;46.95;28.25;;;16.40;6.80;;;;;;4911586;29;20512;-76
2022/03/23 10:50:26;;;;;;;45.92;28.80;;;16.50;4.90;;;;;;4914538;28;20425;-75
2022/03/23 10:53:00;;;;;;;45.47;27.42;;;16.40;4.70;;;;;;4924796;28;20457;-75
2022/03/23 10:55:28;;;;;;;45.58;28.27;;;16.40;4.20;;;;;;4910018;28;20406;-76
2022/03/23 10:58:21;;;;;;;45.30;27.60;;;16.50;4.90;;;;;;4922828;28;20445;-75
2022/03/23 11:00:48;;;;;;;49.15;27.67;;;16.80;3.40;;;;;;4918731;28;20513;-75
2022/03/23 11:03:14;;;;;;;48.80;28.13;;;16.90;3.70;;;;;;4966698;28;20498;-74
2022/03/23 11:05:44;;;;;;;44.53;26.77;;;16.90;3.20;;;;;;4905132;28;20433;-76
2022/03/23 11:08:12;;;;;;;50.10;28.92;;;16.90;3.30;;;;;;4906383;28;20566;-74
2022/03/23 11:16:16;;;;;;;44.60;26.90;;;17.10;1.00;;;;;;4905649;29;20449;-74
2022/03/23 11:18:42;;;;;;;46.65;27.08;;;17.20;1.00;;;;;;4908003;29;20433;-76
2022/03/23 11:21:08;;;;;;;43.72;27.08;;;17.30;1.00;;;;;;4908025;28;21120;-74
2022/03/23 11:23:36;;;;;;;40.15;26.27;;;17.30;1.00;;;;;;4905605;29;20475;-75
2022/03/23 11:26:04;;;;;;;40.40;26.15;;;17.30;1.00;;;;;;4911007;28;20497;-75
2022/03/23 11:28:34;;;;;;;45.17;27.60;;;17.20;1.00;;;;;;4909153;28;20760;-74
2022/03/23 11:31:03;;;;;;;40.75;26.25;;;17.20;1.00;;;;;;4913388;28;20424;-74
2022/03/23 11:33:32;;;;;;;45.70;26.60;;;17.30;1.00;;;;;;4918944;29;20418;-76
2022/03/23 11:35:59;;;;;;;39.70;27.15;;;17.50;1.00;;;;;;4915461;29;20448;-76
2022/03/23 11:38:29;;;;;;;45.20;25.90;;;17.60;1.00;;;;;;4913930;29;20417;-77
2022/03/23 11:40:56;;;;;;;39.83;25.38;;;17.50;1.00;;;;;;4908618;28;20917;-76
2022/03/23 11:43:25;;;;;;;39.20;25.50;;;17.60;1.00;;;;;;4905272;29;20542;-76
2022/03/23 11:45:52;;;;;;;38.25;25.25;;;17.70;1.00;;;;;;4912122;28;20887;-75
2022/03/23 11:48:23;;;;;;;39.78;25.00;;;17.90;1.00;;;;;;4896506;28;20504;-76
2022/03/23 11:51:05;;;;;;;41.10;24.85;;;18.00;1.00;;;;;;4906642;29;20447;-75
2022/03/23 11:53:50;;;;;;;40.92;25.05;;;18.00;1.00;;;;;;4905842;29;20842;-76
2022/03/23 11:56:24;;;;;;;40.38;25.48;;;18.30;1.00;;;;;;4907528;29;20425;-76
2022/03/23 11:58:50;;;;;;;45.10;27.15;;;18.30;1.00;;;;;;4910134;28;20455;-76
2022/03/23 12:01:15;;;;;;;44.15;25.48;;;18.10;1.00;;;;;;4911059;28;20898;-77
2022/03/23 12:03:41;;;;;;;46.67;25.80;;;18.10;1.00;;;;;;4912808;28;20444;-77
2022/03/23 12:06:11;;;;;;;40.47;25.53;;;18.20;1.00;;;;;;4911866;29;20910;-76
2022/03/23 12:08:50;;;;;;;52.25;27.20;;;18.00;1.00;;;;;;4911952;28;20479;-75
2022/03/23 12:11:33;;;;;;;44.28;26.40;;;18.30;1.00;;;;;;4907439;28;20404;-76
2022/03/23 12:13:59;;;;;;;38.57;25.20;;;18.20;1.00;;;;;;4911376;28;20452;-76
2022/03/23 12:16:51;;;;;;;44.22;26.30;;;18.30;1.00;;;;;;4894335;29;20981;-75
2022/03/23 12:19:18;;;;;;;35.50;23.60;;;18.40;1.00;;;;;;4913749;29;20417;-76
2022/03/23 12:21:58;;;;;;;39.45;24.63;;;18.40;1.00;;;;;;4910404;28;20405;-75
2022/03/23 12:24:39;;;;;;;36.95;24.25;;;18.20;1.00;;;;;;4911640;29;20401;-75
2022/03/23 12:27:34;;;;;;;39.40;25.10;;;18.40;1.00;;;;;;4911755;29;20727;-77
2022/03/23 12:30:05;;;;;;;42.47;24.58;;;18.50;1.00;;;;;;4917271;29;20518;-75
2022/03/23 12:32:38;;;;;;;41.15;23.98;;;18.50;1.00;;;;;;4894491;28;20910;-76
2022/03/23 12:35:04;;;;;;;37.85;24.42;;;18.60;1.00;;;;;;4909856;28;20973;-75
2022/03/23 12:37:41;;;;;;;42.50;23.95;;;18.60;1.00;;;;;;4900749;28;20420;-76
2022/03/23 12:40:13;;;;;;;39.50;24.08;;;18.70;1.00;;;;;;4904542;28;20454;-76
2022/03/23 12:42:46;;;;;;;43.90;25.57;;;18.60;1.00;;;;;;4907889;28;20500;-75
2022/03/23 12:45:18;;;;;;;47.75;28.40;;;18.60;1.00;;;;;;4920532;28;20426;-74
2022/03/23 12:47:56;;;;;;;45.38;27.50;;;18.50;1.00;;;;;;4903632;28;20431;-76
2022/03/23 12:59:16;;;;;;;42.40;26.52;;;18.70;1.00;;;;;;4910850;28;20535;-76
2022/03/23 13:01:41;;;;;;;50.08;28.65;;;18.80;1.00;;;;;;4909051;28;20937;-75
2022/03/23 13:04:07;;;;;;;43.20;27.50;;;18.80;1.00;;;;;;4891136;28;20429;-76
2022/03/23 13:06:37;;;;;;;43.58;26.65;;;18.80;1.00;;;;;;4903256;28;20441;-75